sensor_id;sensor_type;location;lat;lon;timestamp;P1;durP1;ratioP1;P2;durP2;ratioP2
13475;SDS011;6810;63.824;20.288;2023-08-31T00:01:00;3.07;;;2.50;;
13475;SDS011;6810;63.824;20.288;2023-08-31T00:03:31;2.80;;;2.60;;
13475;SDS011;6810;63.824;20.288;2023-08-31T00:06:00;4.47;;;2.63;;
13475;SDS011;6810;63.824;20.288;2023-08-31T00:08:29;3.07;;;2.63;;
13475;SDS011;6810;63.824;20.288;2023-08-31T00:10:59;2.60;;;2.40;;
13475;SDS011;6810;63.824;20.288;2023-08-31T00:13:27;2.80;;;2.60;;
13475;SDS011;6810;63.824;20.288;2023-08-31T00:15:56;4.23;;;2.60;;
13475;SDS011;6810;63.824;20.288;2023-08-31T00:18:25;3.00;;;2.50;;
13475;SDS011;6810;63.824;20.288;2023-08-31T00:20:52;2.67;;;2.40;;
13475;SDS011;6810;63.824;20.288;2023-08-31T00:23:20;2.80;;;2.60;;
13475;SDS011;6810;63.824;20.288;2023-08-31T00:25:47;2.50;;;2.30;;
13475;SDS011;6810;63.824;20.288;2023-08-31T00:28:19;2.97;;;2.10;;
13475;SDS011;6810;63.824;20.288;2023-08-31T00:30:46;2.83;;;2.50;;
13475;SDS011;6810;63.824;20.288;2023-08-31T00:33:16;2.37;;;2.17;;
13475;SDS011;6810;63.824;20.288;2023-08-31T00:35:44;2.93;;;2.50;;
13475;SDS011;6810;63.824;20.288;2023-08-31T00:38:14;2.93;;;2.43;;
13475;SDS011;6810;63.824;20.288;2023-08-31T00:40:42;2.90;;;2.37;;
13475;SDS011;6810;63.824;20.288;2023-08-31T00:43:14;2.33;;;2.13;;
13475;SDS011;6810;63.824;20.288;2023-08-31T00:45:48;2.50;;;2.27;;
13475;SDS011;6810;63.824;20.288;2023-08-31T00:48:17;2.27;;;2.07;;
13475;SDS011;6810;63.824;20.288;2023-08-31T00:50:45;2.30;;;2.10;;
13475;SDS011;6810;63.824;20.288;2023-08-31T00:53:13;2.53;;;2.33;;
13475;SDS011;6810;63.824;20.288;2023-08-31T00:55:41;2.20;;;2.10;;
13475;SDS011;6810;63.824;20.288;2023-08-31T00:58:10;2.50;;;2.30;;
13475;SDS011;6810;63.824;20.288;2023-08-31T01:06:41;2.93;;;2.20;;
13475;SDS011;6810;63.824;20.288;2023-08-31T01:09:28;3.10;;;2.50;;
13475;SDS011;6810;63.824;20.288;2023-08-31T01:12:11;3.07;;;2.20;;
13475;SDS011;6810;63.824;20.288;2023-08-31T01:14:52;2.57;;;2.20;;
13475;SDS011;6810;63.824;20.288;2023-08-31T01:17:26;2.40;;;2.20;;
13475;SDS011;6810;63.824;20.288;2023-08-31T01:19:57;2.27;;;2.13;;
13475;SDS011;6810;63.824;20.288;2023-08-31T01:22:39;2.93;;;2.10;;
13475;SDS011;6810;63.824;20.288;2023-08-31T01:25:10;3.30;;;2.30;;
13475;SDS011;6810;63.824;20.288;2023-08-31T01:27:37;4.30;;;2.33;;
13475;SDS011;6810;63.824;20.288;2023-08-31T01:30:05;2.30;;;2.10;;
13475;SDS011;6810;63.824;20.288;2023-08-31T01:32:33;2.00;;;1.90;;
13475;SDS011;6810;63.824;20.288;2023-08-31T01:35:02;2.10;;;2.00;;
13475;SDS011;6810;63.824;20.288;2023-08-31T01:40:20;2.87;;;1.73;;
13475;SDS011;6810;63.824;20.288;2023-08-31T01:42:47;2.90;;;2.13;;
13475;SDS011;6810;63.824;20.288;2023-08-31T01:45:17;2.20;;;2.10;;
13475;SDS011;6810;63.824;20.288;2023-08-31T01:47:48;3.97;;;2.10;;
13475;SDS011;6810;63.824;20.288;2023-08-31T01:50:17;3.00;;;1.73;;
13475;SDS011;6810;63.824;20.288;2023-08-31T01:52:45;3.90;;;2.20;;
13475;SDS011;6810;63.824;20.288;2023-08-31T01:55:12;2.53;;;1.70;;
13475;SDS011;6810;63.824;20.288;2023-08-31T01:57:42;2.33;;;1.67;;
13475;SDS011;6810;63.824;20.288;2023-08-31T02:00:16;1.97;;;1.87;;
13475;SDS011;6810;63.824;20.288;2023-08-31T02:02:46;2.20;;;1.80;;
13475;SDS011;6810;63.824;20.288;2023-08-31T02:05:13;1.80;;;1.70;;
13475;SDS011;6810;63.824;20.288;2023-08-31T02:07:40;1.87;;;1.70;;
13475;SDS011;6810;63.824;20.288;2023-08-31T02:10:07;2.13;;;2.00;;
13475;SDS011;6810;63.824;20.288;2023-08-31T02:12:35;1.83;;;1.67;;
13475;SDS011;6810;63.824;20.288;2023-08-31T02:15:04;3.13;;;1.77;;
13475;SDS011;6810;63.824;20.288;2023-08-31T02:17:36;2.53;;;1.50;;
13475;SDS011;6810;63.824;20.288;2023-08-31T02:20:03;1.93;;;1.67;;
13475;SDS011;6810;63.824;20.288;2023-08-31T02:22:33;2.20;;;1.60;;
13475;SDS011;6810;63.824;20.288;2023-08-31T02:25:01;2.63;;;1.47;;
13475;SDS011;6810;63.824;20.288;2023-08-31T02:27:29;2.67;;;1.40;;
13475;SDS011;6810;63.824;20.288;2023-08-31T02:29:56;1.67;;;1.57;;
13475;SDS011;6810;63.824;20.288;2023-08-31T02:32:23;1.40;;;1.30;;
13475;SDS011;6810;63.824;20.288;2023-08-31T02:34:50;1.40;;;1.30;;
13475;SDS011;6810;63.824;20.288;2023-08-31T02:37:17;2.73;;;1.37;;
13475;SDS011;6810;63.824;20.288;2023-08-31T02:39:44;1.67;;;1.30;;
13475;SDS011;6810;63.824;20.288;2023-08-31T02:42:11;2.03;;;1.20;;
13475;SDS011;6810;63.824;20.288;2023-08-31T02:44:41;1.50;;;1.40;;
13475;SDS011;6810;63.824;20.288;2023-08-31T02:47:08;1.60;;;1.47;;
13475;SDS011;6810;63.824;20.288;2023-08-31T02:49:35;1.37;;;1.20;;
13475;SDS011;6810;63.824;20.288;2023-08-31T02:52:02;1.10;;;1.00;;
13475;SDS011;6810;63.824;20.288;2023-08-31T02:54:29;1.43;;;1.33;;
13475;SDS011;6810;63.824;20.288;2023-08-31T02:56:56;1.67;;;1.17;;
13475;SDS011;6810;63.824;20.288;2023-08-31T02:59:24;1.43;;;1.30;;
13475;SDS011;6810;63.824;20.288;2023-08-31T03:01:51;1.13;;;1.03;;
13475;SDS011;6810;63.824;20.288;2023-08-31T03:04:19;1.30;;;1.20;;
13475;SDS011;6810;63.824;20.288;2023-08-31T03:06:46;1.07;;;1.07;;
13475;SDS011;6810;63.824;20.288;2023-08-31T03:09:13;1.37;;;1.27;;
13475;SDS011;6810;63.824;20.288;2023-08-31T03:11:40;1.67;;;0.93;;
13475;SDS011;6810;63.824;20.288;2023-08-31T03:14:07;1.37;;;1.10;;
13475;SDS011;6810;63.824;20.288;2023-08-31T03:16:36;1.00;;;1.00;;
13475;SDS011;6810;63.824;20.288;2023-08-31T03:19:04;2.30;;;1.03;;
13475;SDS011;6810;63.824;20.288;2023-08-31T03:21:32;1.03;;;0.93;;
13475;SDS011;6810;63.824;20.288;2023-08-31T03:24:00;1.93;;;1.07;;
13475;SDS011;6810;63.824;20.288;2023-08-31T03:26:27;1.20;;;1.10;;
13475;SDS011;6810;63.824;20.288;2023-08-31T03:28:54;1.03;;;1.03;;
13475;SDS011;6810;63.824;20.288;2023-08-31T03:31:21;1.33;;;0.90;;
13475;SDS011;6810;63.824;20.288;2023-08-31T03:33:49;1.60;;;0.97;;
13475;SDS011;6810;63.824;20.288;2023-08-31T03:36:16;1.47;;;1.00;;
13475;SDS011;6810;63.824;20.288;2023-08-31T03:38:44;1.20;;;1.10;;
13475;SDS011;6810;63.824;20.288;2023-08-31T03:41:10;1.10;;;0.80;;
13475;SDS011;6810;63.824;20.288;2023-08-31T03:43:38;1.43;;;1.00;;
13475;SDS011;6810;63.824;20.288;2023-08-31T03:46:06;1.47;;;0.90;;
13475;SDS011;6810;63.824;20.288;2023-08-31T03:48:33;2.90;;;0.97;;
13475;SDS011;6810;63.824;20.288;2023-08-31T03:51:00;2.37;;;1.30;;
13475;SDS011;6810;63.824;20.288;2023-08-31T03:53:27;0.73;;;0.73;;
13475;SDS011;6810;63.824;20.288;2023-08-31T03:55:57;1.20;;;1.10;;
13475;SDS011;6810;63.824;20.288;2023-08-31T03:58:25;1.50;;;0.90;;
13475;SDS011;6810;63.824;20.288;2023-08-31T04:00:53;0.87;;;0.80;;
13475;SDS011;6810;63.824;20.288;2023-08-31T04:03:21;1.47;;;0.90;;
13475;SDS011;6810;63.824;20.288;2023-08-31T04:05:53;1.43;;;1.00;;
13475;SDS011;6810;63.824;20.288;2023-08-31T04:08:21;0.80;;;0.80;;
13475;SDS011;6810;63.824;20.288;2023-08-31T04:10:49;2.60;;;0.70;;
13475;SDS011;6810;63.824;20.288;2023-08-31T04:13:16;1.07;;;0.97;;
13475;SDS011;6810;63.824;20.288;2023-08-31T04:15:43;1.13;;;1.03;;
13475;SDS011;6810;63.824;20.288;2023-08-31T04:18:10;2.00;;;0.97;;
13475;SDS011;6810;63.824;20.288;2023-08-31T04:20:37;1.03;;;1.00;;
13475;SDS011;6810;63.824;20.288;2023-08-31T04:23:04;0.70;;;0.70;;
13475;SDS011;6810;63.824;20.288;2023-08-31T04:25:31;0.80;;;0.80;;
13475;SDS011;6810;63.824;20.288;2023-08-31T04:27:58;0.90;;;0.90;;
13475;SDS011;6810;63.824;20.288;2023-08-31T04:30:25;1.80;;;1.07;;
13475;SDS011;6810;63.824;20.288;2023-08-31T04:32:53;0.93;;;0.93;;
13475;SDS011;6810;63.824;20.288;2023-08-31T04:35:20;1.80;;;1.17;;
13475;SDS011;6810;63.824;20.288;2023-08-31T04:37:47;1.10;;;1.00;;
13475;SDS011;6810;63.824;20.288;2023-08-31T04:40:14;1.00;;;0.90;;
13475;SDS011;6810;63.824;20.288;2023-08-31T04:42:42;1.00;;;1.00;;
13475;SDS011;6810;63.824;20.288;2023-08-31T04:45:09;1.43;;;1.10;;
13475;SDS011;6810;63.824;20.288;2023-08-31T04:47:38;1.27;;;0.90;;
13475;SDS011;6810;63.824;20.288;2023-08-31T04:50:05;2.80;;;1.30;;
13475;SDS011;6810;63.824;20.288;2023-08-31T04:52:33;1.00;;;1.00;;
13475;SDS011;6810;63.824;20.288;2023-08-31T04:55:01;1.47;;;1.00;;
13475;SDS011;6810;63.824;20.288;2023-08-31T04:57:30;1.20;;;1.10;;
13475;SDS011;6810;63.824;20.288;2023-08-31T04:59:57;1.83;;;1.00;;
13475;SDS011;6810;63.824;20.288;2023-08-31T05:02:24;1.20;;;1.00;;
13475;SDS011;6810;63.824;20.288;2023-08-31T05:04:51;1.67;;;1.30;;
13475;SDS011;6810;63.824;20.288;2023-08-31T05:07:18;1.23;;;1.13;;
13475;SDS011;6810;63.824;20.288;2023-08-31T05:09:45;3.20;;;1.30;;
13475;SDS011;6810;63.824;20.288;2023-08-31T05:12:12;1.73;;;1.43;;
13475;SDS011;6810;63.824;20.288;2023-08-31T05:14:39;1.63;;;1.27;;
13475;SDS011;6810;63.824;20.288;2023-08-31T05:17:06;4.40;;;1.30;;
13475;SDS011;6810;63.824;20.288;2023-08-31T05:19:33;1.93;;;1.40;;
13475;SDS011;6810;63.824;20.288;2023-08-31T05:22:00;1.70;;;1.40;;
13475;SDS011;6810;63.824;20.288;2023-08-31T05:24:27;1.50;;;1.40;;
13475;SDS011;6810;63.824;20.288;2023-08-31T05:26:54;1.30;;;1.20;;
13475;SDS011;6810;63.824;20.288;2023-08-31T05:29:21;1.47;;;1.37;;
13475;SDS011;6810;63.824;20.288;2023-08-31T05:31:48;1.40;;;1.30;;
13475;SDS011;6810;63.824;20.288;2023-08-31T05:34:16;1.70;;;1.60;;
13475;SDS011;6810;63.824;20.288;2023-08-31T05:36:44;1.53;;;1.43;;
13475;SDS011;6810;63.824;20.288;2023-08-31T05:39:11;1.50;;;1.40;;
13475;SDS011;6810;63.824;20.288;2023-08-31T05:41:41;1.77;;;1.67;;
13475;SDS011;6810;63.824;20.288;2023-08-31T05:44:09;1.70;;;1.50;;
13475;SDS011;6810;63.824;20.288;2023-08-31T05:46:36;1.60;;;1.50;;
13475;SDS011;6810;63.824;20.288;2023-08-31T05:49:05;1.97;;;1.63;;
13475;SDS011;6810;63.824;20.288;2023-08-31T05:51:33;2.57;;;1.67;;
13475;SDS011;6810;63.824;20.288;2023-08-31T05:54:01;1.60;;;1.50;;
13475;SDS011;6810;63.824;20.288;2023-08-31T05:56:27;2.40;;;2.13;;
13475;SDS011;6810;63.824;20.288;2023-08-31T05:58:55;2.97;;;2.17;;
13475;SDS011;6810;63.824;20.288;2023-08-31T06:01:22;2.17;;;2.00;;
13475;SDS011;6810;63.824;20.288;2023-08-31T06:03:49;2.57;;;2.30;;
13475;SDS011;6810;63.824;20.288;2023-08-31T06:06:16;2.40;;;2.23;;
13475;SDS011;6810;63.824;20.288;2023-08-31T06:08:43;3.73;;;2.50;;
13475;SDS011;6810;63.824;20.288;2023-08-31T06:11:10;2.80;;;2.60;;
13475;SDS011;6810;63.824;20.288;2023-08-31T06:13:40;2.93;;;2.73;;
13475;SDS011;6810;63.824;20.288;2023-08-31T06:16:07;3.00;;;2.70;;
13475;SDS011;6810;63.824;20.288;2023-08-31T06:18:35;4.70;;;2.70;;
13475;SDS011;6810;63.824;20.288;2023-08-31T06:21:02;2.97;;;2.67;;
13475;SDS011;6810;63.824;20.288;2023-08-31T06:23:29;3.00;;;2.80;;
13475;SDS011;6810;63.824;20.288;2023-08-31T06:25:56;3.07;;;2.87;;
13475;SDS011;6810;63.824;20.288;2023-08-31T06:28:23;5.50;;;3.10;;
13475;SDS011;6810;63.824;20.288;2023-08-31T06:30:50;4.40;;;3.50;;
13475;SDS011;6810;63.824;20.288;2023-08-31T06:33:18;3.40;;;3.10;;
13475;SDS011;6810;63.824;20.288;2023-08-31T06:35:46;3.13;;;2.93;;
13475;SDS011;6810;63.824;20.288;2023-08-31T06:38:19;3.47;;;3.10;;
13475;SDS011;6810;63.824;20.288;2023-08-31T06:40:46;3.43;;;3.17;;
13475;SDS011;6810;63.824;20.288;2023-08-31T06:43:14;4.13;;;3.30;;
13475;SDS011;6810;63.824;20.288;2023-08-31T06:45:41;3.53;;;3.23;;
13475;SDS011;6810;63.824;20.288;2023-08-31T06:48:08;4.87;;;3.40;;
13475;SDS011;6810;63.824;20.288;2023-08-31T06:50:35;4.63;;;3.30;;
13475;SDS011;6810;63.824;20.288;2023-08-31T06:53:02;3.30;;;3.10;;
13475;SDS011;6810;63.824;20.288;2023-08-31T06:55:30;4.23;;;3.73;;
13475;SDS011;6810;63.824;20.288;2023-08-31T06:57:59;3.20;;;3.00;;
13475;SDS011;6810;63.824;20.288;2023-08-31T07:00:27;3.67;;;3.37;;
13475;SDS011;6810;63.824;20.288;2023-08-31T07:02:54;3.50;;;3.20;;
13475;SDS011;6810;63.824;20.288;2023-08-31T07:05:24;3.70;;;3.30;;
13475;SDS011;6810;63.824;20.288;2023-08-31T07:07:53;4.07;;;3.67;;
13475;SDS011;6810;63.824;20.288;2023-08-31T07:10:21;4.03;;;3.73;;
13475;SDS011;6810;63.824;20.288;2023-08-31T07:12:48;3.70;;;3.40;;
13475;SDS011;6810;63.824;20.288;2023-08-31T07:15:16;3.27;;;3.07;;
13475;SDS011;6810;63.824;20.288;2023-08-31T07:17:45;4.30;;;3.90;;
13475;SDS011;6810;63.824;20.288;2023-08-31T07:20:12;4.90;;;3.60;;
13475;SDS011;6810;63.824;20.288;2023-08-31T07:22:40;5.23;;;3.93;;
13475;SDS011;6810;63.824;20.288;2023-08-31T07:25:07;4.23;;;3.50;;
13475;SDS011;6810;63.824;20.288;2023-08-31T07:27:35;6.00;;;3.43;;
13475;SDS011;6810;63.824;20.288;2023-08-31T07:30:02;4.20;;;3.80;;
13475;SDS011;6810;63.824;20.288;2023-08-31T07:32:30;5.00;;;3.83;;
13475;SDS011;6810;63.824;20.288;2023-08-31T07:34:58;4.60;;;3.70;;
13475;SDS011;6810;63.824;20.288;2023-08-31T07:37:26;3.53;;;3.23;;
13475;SDS011;6810;63.824;20.288;2023-08-31T07:39:53;4.77;;;3.63;;
13475;SDS011;6810;63.824;20.288;2023-08-31T07:42:20;3.83;;;3.50;;
13475;SDS011;6810;63.824;20.288;2023-08-31T07:44:47;3.80;;;3.47;;
13475;SDS011;6810;63.824;20.288;2023-08-31T07:47:14;3.73;;;3.10;;
13475;SDS011;6810;63.824;20.288;2023-08-31T07:49:41;3.93;;;3.63;;
13475;SDS011;6810;63.824;20.288;2023-08-31T07:52:08;3.90;;;3.40;;
13475;SDS011;6810;63.824;20.288;2023-08-31T07:54:36;4.13;;;3.83;;
13475;SDS011;6810;63.824;20.288;2023-08-31T07:57:03;4.10;;;3.80;;
13475;SDS011;6810;63.824;20.288;2023-08-31T07:59:30;3.67;;;3.37;;
13475;SDS011;6810;63.824;20.288;2023-08-31T08:01:57;5.43;;;3.97;;
13475;SDS011;6810;63.824;20.288;2023-08-31T08:04:24;3.83;;;3.40;;
13475;SDS011;6810;63.824;20.288;2023-08-31T08:06:52;3.97;;;3.10;;
13475;SDS011;6810;63.824;20.288;2023-08-31T08:09:20;3.63;;;3.33;;
13475;SDS011;6810;63.824;20.288;2023-08-31T08:11:47;3.23;;;3.00;;
13475;SDS011;6810;63.824;20.288;2023-08-31T08:14:14;4.23;;;3.40;;
13475;SDS011;6810;63.824;20.288;2023-08-31T08:16:42;3.37;;;3.07;;
13475;SDS011;6810;63.824;20.288;2023-08-31T08:19:09;3.33;;;3.03;;
13475;SDS011;6810;63.824;20.288;2023-08-31T08:21:37;3.10;;;2.80;;
13475;SDS011;6810;63.824;20.288;2023-08-31T08:24:04;3.17;;;2.97;;
13475;SDS011;6810;63.824;20.288;2023-08-31T08:26:31;3.30;;;3.10;;
13475;SDS011;6810;63.824;20.288;2023-08-31T08:28:58;3.23;;;2.93;;
13475;SDS011;6810;63.824;20.288;2023-08-31T08:31:25;2.90;;;2.70;;
13475;SDS011;6810;63.824;20.288;2023-08-31T08:33:52;2.93;;;2.73;;
13475;SDS011;6810;63.824;20.288;2023-08-31T08:36:19;3.00;;;2.70;;
13475;SDS011;6810;63.824;20.288;2023-08-31T08:38:46;2.90;;;2.40;;
13475;SDS011;6810;63.824;20.288;2023-08-31T08:41:13;2.50;;;2.30;;
13475;SDS011;6810;63.824;20.288;2023-08-31T08:43:41;2.50;;;2.30;;
13475;SDS011;6810;63.824;20.288;2023-08-31T08:46:10;2.70;;;2.50;;
13475;SDS011;6810;63.824;20.288;2023-08-31T08:48:37;2.83;;;2.57;;
13475;SDS011;6810;63.824;20.288;2023-08-31T08:51:06;2.33;;;2.20;;
13475;SDS011;6810;63.824;20.288;2023-08-31T08:53:34;2.77;;;2.37;;
13475;SDS011;6810;63.824;20.288;2023-08-31T08:56:01;3.17;;;2.77;;
13475;SDS011;6810;63.824;20.288;2023-08-31T08:58:29;2.40;;;2.30;;
13475;SDS011;6810;63.824;20.288;2023-08-31T09:00:56;2.73;;;2.53;;
13475;SDS011;6810;63.824;20.288;2023-08-31T09:03:23;2.90;;;2.33;;
13475;SDS011;6810;63.824;20.288;2023-08-31T09:05:51;2.80;;;2.60;;
13475;SDS011;6810;63.824;20.288;2023-08-31T09:08:27;2.43;;;2.30;;
13475;SDS011;6810;63.824;20.288;2023-08-31T09:10:56;2.70;;;2.50;;
13475;SDS011;6810;63.824;20.288;2023-08-31T09:13:28;2.67;;;2.47;;
13475;SDS011;6810;63.824;20.288;2023-08-31T09:15:57;2.77;;;2.50;;
13475;SDS011;6810;63.824;20.288;2023-08-31T09:18:25;2.97;;;2.77;;
13475;SDS011;6810;63.824;20.288;2023-08-31T09:20:54;2.70;;;2.50;;
13475;SDS011;6810;63.824;20.288;2023-08-31T09:23:25;2.80;;;2.60;;
13475;SDS011;6810;63.824;20.288;2023-08-31T09:25:53;2.83;;;2.63;;
13475;SDS011;6810;63.824;20.288;2023-08-31T09:28:22;2.87;;;2.67;;
13475;SDS011;6810;63.824;20.288;2023-08-31T09:31:04;2.97;;;2.77;;
13475;SDS011;6810;63.824;20.288;2023-08-31T09:33:36;2.93;;;2.73;;
13475;SDS011;6810;63.824;20.288;2023-08-31T09:36:06;2.83;;;2.63;;
13475;SDS011;6810;63.824;20.288;2023-08-31T09:38:44;2.97;;;2.70;;
13475;SDS011;6810;63.824;20.288;2023-08-31T09:41:12;3.50;;;3.20;;
13475;SDS011;6810;63.824;20.288;2023-08-31T09:43:39;4.33;;;3.10;;
13475;SDS011;6810;63.824;20.288;2023-08-31T09:46:06;3.30;;;3.00;;
13475;SDS011;6810;63.824;20.288;2023-08-31T09:48:35;3.03;;;2.83;;
13475;SDS011;6810;63.824;20.288;2023-08-31T09:51:04;3.13;;;2.83;;
13475;SDS011;6810;63.824;20.288;2023-08-31T09:53:32;3.07;;;2.87;;
13475;SDS011;6810;63.824;20.288;2023-08-31T09:56:04;4.30;;;3.20;;
13475;SDS011;6810;63.824;20.288;2023-08-31T09:58:33;3.40;;;3.10;;
13475;SDS011;6810;63.824;20.288;2023-08-31T10:01:00;3.90;;;3.50;;
13475;SDS011;6810;63.824;20.288;2023-08-31T10:03:30;3.43;;;3.03;;
13475;SDS011;6810;63.824;20.288;2023-08-31T10:05:59;4.17;;;3.30;;
13475;SDS011;6810;63.824;20.288;2023-08-31T10:08:27;3.47;;;3.23;;
13475;SDS011;6810;63.824;20.288;2023-08-31T10:10:59;3.63;;;3.33;;
13475;SDS011;6810;63.824;20.288;2023-08-31T10:13:31;4.70;;;3.30;;
13475;SDS011;6810;63.824;20.288;2023-08-31T10:16:03;3.80;;;3.50;;
13475;SDS011;6810;63.824;20.288;2023-08-31T10:18:31;4.03;;;3.63;;
13475;SDS011;6810;63.824;20.288;2023-08-31T10:21:01;4.17;;;3.87;;
13475;SDS011;6810;63.824;20.288;2023-08-31T10:23:29;4.27;;;3.97;;
13475;SDS011;6810;63.824;20.288;2023-08-31T10:28:24;4.20;;;3.80;;
13475;SDS011;6810;63.824;20.288;2023-08-31T10:31:05;4.33;;;3.90;;
13475;SDS011;6810;63.824;20.288;2023-08-31T10:33:34;3.70;;;3.40;;
13475;SDS011;6810;63.824;20.288;2023-08-31T10:36:13;3.87;;;3.57;;
13475;SDS011;6810;63.824;20.288;2023-08-31T10:38:44;4.00;;;3.70;;
13475;SDS011;6810;63.824;20.288;2023-08-31T10:41:33;4.20;;;3.83;;
13475;SDS011;6810;63.824;20.288;2023-08-31T10:44:26;3.67;;;3.37;;
13475;SDS011;6810;63.824;20.288;2023-08-31T10:46:53;4.23;;;3.60;;
13475;SDS011;6810;63.824;20.288;2023-08-31T10:49:21;3.80;;;3.50;;
13475;SDS011;6810;63.824;20.288;2023-08-31T10:51:52;4.03;;;3.63;;
13475;SDS011;6810;63.824;20.288;2023-08-31T10:54:22;3.80;;;3.50;;
13475;SDS011;6810;63.824;20.288;2023-08-31T10:59:51;3.80;;;3.50;;
13475;SDS011;6810;63.824;20.288;2023-08-31T11:07:41;3.70;;;3.40;;
13475;SDS011;6810;63.824;20.288;2023-08-31T11:12:41;3.30;;;3.00;;
13475;SDS011;6810;63.824;20.288;2023-08-31T11:15:17;3.27;;;3.07;;
13475;SDS011;6810;63.824;20.288;2023-08-31T11:17:45;3.47;;;3.17;;
13475;SDS011;6810;63.824;20.288;2023-08-31T11:20:14;3.30;;;3.00;;
13475;SDS011;6810;63.824;20.288;2023-08-31T11:22:44;3.10;;;2.90;;
13475;SDS011;6810;63.824;20.288;2023-08-31T11:25:13;3.37;;;3.07;;
13475;SDS011;6810;63.824;20.288;2023-08-31T11:27:40;3.57;;;3.00;;
13475;SDS011;6810;63.824;20.288;2023-08-31T11:30:15;2.93;;;2.73;;
13475;SDS011;6810;63.824;20.288;2023-08-31T11:32:50;3.10;;;2.80;;
13475;SDS011;6810;63.824;20.288;2023-08-31T11:35:19;3.10;;;2.80;;
13475;SDS011;6810;63.824;20.288;2023-08-31T11:37:51;3.00;;;2.70;;
13475;SDS011;6810;63.824;20.288;2023-08-31T11:40:22;2.90;;;2.70;;
13475;SDS011;6810;63.824;20.288;2023-08-31T11:42:49;3.80;;;3.50;;
13475;SDS011;6810;63.824;20.288;2023-08-31T11:45:17;3.00;;;2.80;;
13475;SDS011;6810;63.824;20.288;2023-08-31T11:47:45;3.60;;;3.00;;
13475;SDS011;6810;63.824;20.288;2023-08-31T11:50:14;2.90;;;2.70;;
13475;SDS011;6810;63.824;20.288;2023-08-31T11:52:43;3.20;;;2.87;;
13475;SDS011;6810;63.824;20.288;2023-08-31T11:55:11;2.87;;;2.67;;
13475;SDS011;6810;63.824;20.288;2023-08-31T11:57:40;3.10;;;2.90;;
13475;SDS011;6810;63.824;20.288;2023-08-31T12:00:07;3.33;;;3.10;;
13475;SDS011;6810;63.824;20.288;2023-08-31T12:02:37;3.50;;;3.20;;
13475;SDS011;6810;63.824;20.288;2023-08-31T12:05:04;3.33;;;3.13;;
13475;SDS011;6810;63.824;20.288;2023-08-31T12:07:32;3.50;;;3.20;;
13475;SDS011;6810;63.824;20.288;2023-08-31T12:10:06;3.03;;;2.83;;
13475;SDS011;6810;63.824;20.288;2023-08-31T12:12:34;2.73;;;2.53;;
13475;SDS011;6810;63.824;20.288;2023-08-31T12:15:03;3.17;;;2.87;;
13475;SDS011;6810;63.824;20.288;2023-08-31T12:17:36;3.40;;;3.10;;
13475;SDS011;6810;63.824;20.288;2023-08-31T12:20:05;3.33;;;3.03;;
13475;SDS011;6810;63.824;20.288;2023-08-31T12:22:33;2.80;;;2.60;;
13475;SDS011;6810;63.824;20.288;2023-08-31T12:25:01;3.60;;;3.30;;
13475;SDS011;6810;63.824;20.288;2023-08-31T12:27:29;3.10;;;2.80;;
13475;SDS011;6810;63.824;20.288;2023-08-31T12:29:57;3.27;;;2.93;;
13475;SDS011;6810;63.824;20.288;2023-08-31T12:32:24;2.93;;;2.73;;
13475;SDS011;6810;63.824;20.288;2023-08-31T12:34:51;3.60;;;2.60;;
13475;SDS011;6810;63.824;20.288;2023-08-31T12:37:19;3.00;;;2.70;;
13475;SDS011;6810;63.824;20.288;2023-08-31T12:39:46;3.40;;;3.20;;
13475;SDS011;6810;63.824;20.288;2023-08-31T12:42:13;3.27;;;3.07;;
13475;SDS011;6810;63.824;20.288;2023-08-31T12:44:49;2.80;;;2.60;;
13475;SDS011;6810;63.824;20.288;2023-08-31T12:47:16;3.60;;;3.30;;
13475;SDS011;6810;63.824;20.288;2023-08-31T12:49:43;3.50;;;3.03;;
13475;SDS011;6810;63.824;20.288;2023-08-31T12:52:11;3.03;;;2.83;;
13475;SDS011;6810;63.824;20.288;2023-08-31T12:54:37;3.83;;;2.87;;
13475;SDS011;6810;63.824;20.288;2023-08-31T12:57:05;2.90;;;2.70;;
13475;SDS011;6810;63.824;20.288;2023-08-31T12:59:32;3.10;;;2.80;;
13475;SDS011;6810;63.824;20.288;2023-08-31T13:01:59;3.20;;;2.90;;
13475;SDS011;6810;63.824;20.288;2023-08-31T13:04:28;3.27;;;2.67;;
13475;SDS011;6810;63.824;20.288;2023-08-31T13:06:55;3.00;;;2.80;;
13475;SDS011;6810;63.824;20.288;2023-08-31T13:09:22;3.00;;;2.57;;
13475;SDS011;6810;63.824;20.288;2023-08-31T13:11:49;3.57;;;3.00;;
13475;SDS011;6810;63.824;20.288;2023-08-31T13:14:16;3.03;;;2.83;;
13475;SDS011;6810;63.824;20.288;2023-08-31T13:16:43;3.27;;;3.00;;
13475;SDS011;6810;63.824;20.288;2023-08-31T13:19:10;2.87;;;2.67;;
13475;SDS011;6810;63.824;20.288;2023-08-31T13:21:37;4.03;;;2.70;;
13475;SDS011;6810;63.824;20.288;2023-08-31T13:24:04;3.80;;;2.57;;
13475;SDS011;6810;63.824;20.288;2023-08-31T13:26:31;2.70;;;2.50;;
13475;SDS011;6810;63.824;20.288;2023-08-31T13:28:58;4.30;;;2.97;;
13475;SDS011;6810;63.824;20.288;2023-08-31T13:31:25;3.80;;;2.73;;
13475;SDS011;6810;63.824;20.288;2023-08-31T13:33:52;2.47;;;2.33;;
13475;SDS011;6810;63.824;20.288;2023-08-31T13:36:20;2.87;;;2.57;;
13475;SDS011;6810;63.824;20.288;2023-08-31T13:38:47;3.40;;;2.70;;
13475;SDS011;6810;63.824;20.288;2023-08-31T13:41:14;2.77;;;2.57;;
13475;SDS011;6810;63.824;20.288;2023-08-31T13:43:41;3.57;;;2.33;;
13475;SDS011;6810;63.824;20.288;2023-08-31T13:46:09;4.40;;;2.60;;
13475;SDS011;6810;63.824;20.288;2023-08-31T13:48:36;2.53;;;2.33;;
13475;SDS011;6810;63.824;20.288;2023-08-31T13:51:04;2.73;;;2.57;;
13475;SDS011;6810;63.824;20.288;2023-08-31T13:53:31;2.93;;;2.60;;
13475;SDS011;6810;63.824;20.288;2023-08-31T13:56:07;3.37;;;2.30;;
13475;SDS011;6810;63.824;20.288;2023-08-31T13:58:34;3.83;;;2.33;;
13475;SDS011;6810;63.824;20.288;2023-08-31T14:01:01;3.47;;;2.40;;
13475;SDS011;6810;63.824;20.288;2023-08-31T14:03:30;2.40;;;2.20;;
13475;SDS011;6810;63.824;20.288;2023-08-31T14:05:57;2.20;;;2.00;;
13475;SDS011;6810;63.824;20.288;2023-08-31T14:08:24;2.03;;;1.80;;
13475;SDS011;6810;63.824;20.288;2023-08-31T14:10:53;2.07;;;1.87;;
13475;SDS011;6810;63.824;20.288;2023-08-31T14:13:21;2.73;;;1.90;;
13475;SDS011;6810;63.824;20.288;2023-08-31T14:15:48;2.10;;;1.90;;
13475;SDS011;6810;63.824;20.288;2023-08-31T14:18:15;2.40;;;2.17;;
13475;SDS011;6810;63.824;20.288;2023-08-31T14:20:43;2.13;;;2.00;;
13475;SDS011;6810;63.824;20.288;2023-08-31T14:23:10;2.30;;;2.17;;
13475;SDS011;6810;63.824;20.288;2023-08-31T14:25:37;2.20;;;2.00;;
13475;SDS011;6810;63.824;20.288;2023-08-31T14:28:05;1.87;;;1.50;;
13475;SDS011;6810;63.824;20.288;2023-08-31T14:30:32;2.20;;;2.00;;
13475;SDS011;6810;63.824;20.288;2023-08-31T14:33:02;2.13;;;1.70;;
13475;SDS011;6810;63.824;20.288;2023-08-31T14:35:29;2.10;;;1.90;;
13475;SDS011;6810;63.824;20.288;2023-08-31T14:37:57;3.20;;;1.80;;
13475;SDS011;6810;63.824;20.288;2023-08-31T14:40:27;2.13;;;2.00;;
13475;SDS011;6810;63.824;20.288;2023-08-31T14:42:54;2.10;;;1.90;;
13475;SDS011;6810;63.824;20.288;2023-08-31T14:45:24;3.07;;;2.00;;
13475;SDS011;6810;63.824;20.288;2023-08-31T14:47:51;3.57;;;2.17;;
13475;SDS011;6810;63.824;20.288;2023-08-31T14:50:18;2.33;;;1.80;;
13475;SDS011;6810;63.824;20.288;2023-08-31T14:52:47;1.90;;;1.80;;
13475;SDS011;6810;63.824;20.288;2023-08-31T14:55:15;4.03;;;2.00;;
13475;SDS011;6810;63.824;20.288;2023-08-31T14:57:42;2.43;;;2.13;;
13475;SDS011;6810;63.824;20.288;2023-08-31T15:00:09;2.30;;;2.20;;
13475;SDS011;6810;63.824;20.288;2023-08-31T15:02:37;2.40;;;2.20;;
13475;SDS011;6810;63.824;20.288;2023-08-31T15:05:24;3.20;;;2.00;;
13475;SDS011;6810;63.824;20.288;2023-08-31T15:08:11;2.37;;;1.73;;
13475;SDS011;6810;63.824;20.288;2023-08-31T15:10:58;2.30;;;2.10;;
13475;SDS011;6810;63.824;20.288;2023-08-31T15:13:45;2.10;;;2.00;;
13475;SDS011;6810;63.824;20.288;2023-08-31T15:16:33;2.60;;;1.70;;
13475;SDS011;6810;63.824;20.288;2023-08-31T15:19:20;2.60;;;2.10;;